createdAt,value
2022-08-07T00:01:44.491Z,11.52
2022-08-07T00:04:09.599Z,11.56
2022-08-07T00:06:45.552Z,11.51
2022-08-07T00:09:21.253Z,11.44
2022-08-07T00:11:55.877Z,11.40
2022-08-07T00:14:30.107Z,11.38
2022-08-07T00:17:01.658Z,11.33
2022-08-07T00:19:59.917Z,11.29
2022-08-07T00:22:24.953Z,11.30
2022-08-07T00:25:07.359Z,11.43
2022-08-07T00:27:53.141Z,11.45
2022-08-07T00:30:21.707Z,11.40
2022-08-07T00:32:55.550Z,11.27
2022-08-07T00:35:23.077Z,11.14
2022-08-07T00:37:50.783Z,11.18
2022-08-07T00:40:39.704Z,11.27
2022-08-07T00:43:09.740Z,11.31
2022-08-07T00:45:42.178Z,11.22
2022-08-07T00:48:13.429Z,11.17
2022-08-07T00:50:43.891Z,11.13
2022-08-07T00:53:13.105Z,11.08
2022-08-07T00:56:02.231Z,10.96
2022-08-07T00:58:26.615Z,10.97
2022-08-07T01:00:53.716Z,10.94
2022-08-07T01:03:25.486Z,10.88
2022-08-07T01:21:26.262Z,10.76
2022-08-07T01:23:57.048Z,10.75
2022-08-07T01:26:26.014Z,10.82
2022-08-07T01:28:54.128Z,10.79
2022-08-07T01:31:27.795Z,10.71
2022-08-07T01:34:08.165Z,10.60
2022-08-07T01:36:40.632Z,10.54
2022-08-07T01:39:10.136Z,10.47
2022-08-07T01:41:40.757Z,10.44
2022-08-07T01:44:26.335Z,10.37
2022-08-07T01:46:53.446Z,10.42
2022-08-07T01:49:21.427Z,10.39
2022-08-07T01:52:03.611Z,10.41
2022-08-07T01:54:37.532Z,10.42
2022-08-07T01:57:24.928Z,10.36
2022-08-07T01:59:51.622Z,10.30
2022-08-07T02:02:32.482Z,10.29
2022-08-07T02:05:05.748Z,10.27
2022-08-07T02:07:49.949Z,10.32
2022-08-07T02:10:19.058Z,10.37
2022-08-07T02:12:50.283Z,10.42
2022-08-07T02:15:22.583Z,10.46
2022-08-07T02:17:51.676Z,10.37
2022-08-07T02:20:27.791Z,10.27
2022-08-07T02:23:00.104Z,10.26
2022-08-07T02:26:10.040Z,10.33
2022-08-07T02:28:25.496Z,10.28
2022-08-07T02:30:55.738Z,10.24
2022-08-07T02:33:33.000Z,10.13
2022-08-07T02:36:28.944Z,10.00
2022-08-07T02:39:16.331Z,9.92
2022-08-07T02:41:50.579Z,9.82
2022-08-07T02:44:18.878Z,9.73
2022-08-07T02:46:52.767Z,9.69
2022-08-07T02:49:28.733Z,9.62
2022-08-07T02:52:09.995Z,9.60
2022-08-07T02:54:42.901Z,9.57
2022-08-07T02:57:14.079Z,9.60
2022-08-07T02:59:54.962Z,9.70
2022-08-07T03:02:28.103Z,9.74
2022-08-07T03:04:56.422Z,9.70
2022-08-07T03:08:04.927Z,9.62
2022-08-07T03:10:11.917Z,9.51
2022-08-07T03:12:41.670Z,9.52
2022-08-07T03:15:09.414Z,9.65
2022-08-07T03:17:53.404Z,9.72
2022-08-07T03:20:22.094Z,9.76
2022-08-07T03:22:50.579Z,9.81
2022-08-07T03:25:21.150Z,9.84
2022-08-07T03:27:59.175Z,9.85
2022-08-07T03:30:35.772Z,9.84
2022-08-07T03:33:04.391Z,9.81
2022-08-07T03:35:38.011Z,9.82
2022-08-07T03:38:13.328Z,9.82
2022-08-07T03:40:40.372Z,9.85
2022-08-07T03:43:14.530Z,9.87
2022-08-07T03:45:43.599Z,9.94
2022-08-07T03:48:15.139Z,9.90
2022-08-07T03:50:51.993Z,9.79
2022-08-07T03:53:50.033Z,9.78
2022-08-07T03:56:11.108Z,9.72
2022-08-07T03:59:09.712Z,9.59
2022-08-07T04:01:30.247Z,9.47
2022-08-07T04:03:59.485Z,9.36
2022-08-07T04:06:37.739Z,9.28
2022-08-07T04:09:06.279Z,9.23
2022-08-07T04:12:26.800Z,9.17
2022-08-07T04:14:36.959Z,9.10
2022-08-07T04:17:04.975Z,9.05
2022-08-07T04:19:52.440Z,9.03
2022-08-07T04:22:28.816Z,9.06
2022-08-07T04:24:57.973Z,9.09
2022-08-07T04:27:26.451Z,9.14
2022-08-07T04:30:01.215Z,9.17
2022-08-07T04:32:34.987Z,9.32
2022-08-07T04:35:11.146Z,9.41
2022-08-07T04:38:00.795Z,9.49
2022-08-07T04:40:29.808Z,9.68
2022-08-07T04:43:02.070Z,9.79
2022-08-07T04:45:57.609Z,9.92
2022-08-07T04:48:25.599Z,10.06
2022-08-07T04:51:04.563Z,10.18
2022-08-07T04:54:05.193Z,10.24
2022-08-07T04:58:10.699Z,10.26
2022-08-07T05:00:18.685Z,10.32
2022-08-07T05:03:17.171Z,10.41
2022-08-07T05:06:20.020Z,10.51
2022-08-07T05:09:08.193Z,10.59
2022-08-07T05:11:57.159Z,10.68
2022-08-07T05:14:52.255Z,10.86
2022-08-07T05:18:00.937Z,10.93
2022-08-07T05:20:09.948Z,11.12
2022-08-07T05:22:39.525Z,11.26
2022-08-07T05:25:11.690Z,11.41
2022-08-07T05:28:03.450Z,11.53
2022-08-07T05:30:43.201Z,11.51
2022-08-07T05:33:15.011Z,11.70
2022-08-07T05:35:45.629Z,11.90
2022-08-07T05:39:01.077Z,12.12
2022-08-07T05:41:12.121Z,12.46
2022-08-07T05:43:50.237Z,12.98
2022-08-07T05:46:31.003Z,13.75
2022-08-07T05:48:59.376Z,14.36
2022-08-07T05:51:31.470Z,15.14
2022-08-07T05:54:13.457Z,15.23
2022-08-07T05:56:51.257Z,15.62
2022-08-07T05:59:21.114Z,15.92
2022-08-07T06:01:49.536Z,16.06
2022-08-07T06:04:19.766Z,15.39
2022-08-07T06:06:47.643Z,16.00
2022-08-07T06:09:56.604Z,16.32
2022-08-07T06:12:10.949Z,16.64
2022-08-07T06:14:43.153Z,16.92
2022-08-07T06:17:19.272Z,17.23
2022-08-07T06:20:03.659Z,17.19
2022-08-07T06:22:38.336Z,17.79
2022-08-07T06:25:06.493Z,17.95
2022-08-07T06:28:00.115Z,17.25
2022-08-07T06:30:32.173Z,17.09
2022-08-07T06:33:05.421Z,17.76
2022-08-07T06:35:47.998Z,18.17
2022-08-07T06:38:30.342Z,17.50
2022-08-07T06:41:01.034Z,17.28
2022-08-07T06:43:39.247Z,18.39
2022-08-07T06:46:12.509Z,18.57
2022-08-07T06:48:42.022Z,18.54
2022-08-07T06:51:31.279Z,18.62
2022-08-07T06:55:29.758Z,18.63
2022-08-07T06:56:51.461Z,19.01
2022-08-07T07:00:13.310Z,18.92
2022-08-07T07:02:48.152Z,18.58
2022-08-07T07:05:05.509Z,18.56
2022-08-07T07:08:00.330Z,18.36
2022-08-07T07:10:28.338Z,17.74
2022-08-07T07:13:00.223Z,18.66
2022-08-07T07:15:36.027Z,18.83
2022-08-07T07:18:13.957Z,18.88
2022-08-07T07:20:51.827Z,18.79
2022-08-07T07:24:09.555Z,18.10
2022-08-07T07:26:35.418Z,17.66
2022-08-07T07:29:38.425Z,17.21
2022-08-07T07:31:52.160Z,17.23
2022-08-07T07:34:29.375Z,17.18
2022-08-07T07:37:14.461Z,17.26
2022-08-07T07:39:54.408Z,17.24
2022-08-07T07:42:32.656Z,17.46
2022-08-07T07:45:02.521Z,17.50
2022-08-07T07:47:42.894Z,17.26
2022-08-07T07:50:33.579Z,17.73
2022-08-07T07:53:20.388Z,17.97
2022-08-07T07:56:00.583Z,17.99
2022-08-07T07:58:36.864Z,18.09
2022-08-07T08:02:02.856Z,18.15
2022-08-07T08:04:10.736Z,18.27
2022-08-07T08:06:50.895Z,18.42
2022-08-07T08:09:24.235Z,18.39
2022-08-07T08:12:02.986Z,18.58
2022-08-07T08:14:34.355Z,18.58
2022-08-07T08:17:55.842Z,18.95
2022-08-07T08:20:22.549Z,18.73
2022-08-07T08:23:03.268Z,18.46
2022-08-07T08:25:52.193Z,18.71
2022-08-07T08:28:38.648Z,19.20
2022-08-07T08:31:14.785Z,19.33
2022-08-07T08:33:49.758Z,19.03
2022-08-07T08:36:29.813Z,18.86
2022-08-07T08:39:01.884Z,19.14
2022-08-07T08:41:58.429Z,19.16
2022-08-07T08:44:54.474Z,19.54
2022-08-07T08:47:52.142Z,19.79
2022-08-07T08:50:39.254Z,19.70
2022-08-07T08:53:19.757Z,19.68
2022-08-07T08:55:58.614Z,19.91
2022-08-07T08:58:43.963Z,20.10
2022-08-07T09:01:15.361Z,20.29
2022-08-07T09:03:55.778Z,19.97
2022-08-07T09:06:29.303Z,19.75
2022-08-07T09:09:13.393Z,19.85
2022-08-07T09:12:30.667Z,20.18
2022-08-07T09:16:20.695Z,20.24
2022-08-07T09:18:23.561Z,20.05
2022-08-07T09:21:05.003Z,20.11
2022-08-07T09:24:34.199Z,20.49
2022-08-07T09:27:22.740Z,20.50
2022-08-07T09:30:08.989Z,20.62
2022-08-07T09:32:57.025Z,20.72
2022-08-07T09:36:04.670Z,20.76
2022-08-07T09:38:38.363Z,20.78
2022-08-07T09:41:17.657Z,20.80
2022-08-07T09:44:06.423Z,20.77
2022-08-07T09:47:57.741Z,20.84
2022-08-07T09:51:05.389Z,21.09
2022-08-07T09:53:59.353Z,20.83
2022-08-07T09:56:59.787Z,21.01
2022-08-07T10:00:01.825Z,21.15
2022-08-07T10:03:07.857Z,21.23
2022-08-07T10:06:01.325Z,21.32
2022-08-07T10:09:07.137Z,21.77
2022-08-07T10:12:00.403Z,20.94
2022-08-07T10:14:47.456Z,21.31
2022-08-07T10:18:01.312Z,21.55
2022-08-07T10:20:50.148Z,21.39
2022-08-07T10:24:05.252Z,21.21
2022-08-07T10:26:57.409Z,21.49
2022-08-07T10:29:53.152Z,21.78
2022-08-07T10:32:59.617Z,21.44
2022-08-07T10:35:55.289Z,21.17
2022-08-07T10:38:35.963Z,21.31
2022-08-07T10:41:52.310Z,21.60
2022-08-07T10:44:39.876Z,21.93
2022-08-07T10:47:54.114Z,22.20
2022-08-07T10:50:37.595Z,21.50
2022-08-07T10:53:28.119Z,21.69
2022-08-07T10:56:31.405Z,21.47
2022-08-07T10:59:30.386Z,21.56
2022-08-07T11:02:33.086Z,21.79
2022-08-07T11:05:25.517Z,22.26
2022-08-07T11:08:31.369Z,22.85
2022-08-07T11:11:35.925Z,22.57
2022-08-07T11:14:45.087Z,21.80
2022-08-07T11:17:08.856Z,22.29
2022-08-07T11:19:57.598Z,22.32
2022-08-07T11:22:45.904Z,22.59
2022-08-07T11:25:25.933Z,22.74
2022-08-07T11:28:06.192Z,23.03
2022-08-07T11:30:49.411Z,22.61
2022-08-07T11:34:00.385Z,22.80
2022-08-07T11:36:36.412Z,22.95
2022-08-07T11:39:19.796Z,22.71
2022-08-07T11:42:16.868Z,22.43
2022-08-07T11:44:57.848Z,22.64
2022-08-07T11:48:06.064Z,23.14
2022-08-07T11:50:59.492Z,23.04
2022-08-07T11:54:01.003Z,23.32
2022-08-07T11:56:52.299Z,23.67
2022-08-07T12:00:12.560Z,23.39
2022-08-07T12:02:56.543Z,23.77
2022-08-07T12:05:47.490Z,23.99
2022-08-07T12:08:38.206Z,23.14
2022-08-07T12:11:22.283Z,23.19
2022-08-07T12:14:01.548Z,23.31
2022-08-07T12:16:32.945Z,23.52
2022-08-07T12:19:56.531Z,23.40
2022-08-07T12:22:58.491Z,23.51
2022-08-07T12:26:30.012Z,23.50
2022-08-07T12:29:03.598Z,22.94
2022-08-07T12:32:12.569Z,22.98
2022-08-07T12:34:42.189Z,22.81
2022-08-07T12:37:23.573Z,22.90
2022-08-07T12:39:58.729Z,23.39
2022-08-07T12:42:28.605Z,23.32
2022-08-07T12:45:13.831Z,23.48
2022-08-07T12:48:02.528Z,23.60
2022-08-07T12:50:48.896Z,23.56
2022-08-07T12:53:22.408Z,24.09
2022-08-07T12:56:19.902Z,24.32
2022-08-07T12:58:53.233Z,23.98
2022-08-07T13:01:29.365Z,23.89
2022-08-07T13:04:48.975Z,24.00
2022-08-07T13:08:13.421Z,23.88
2022-08-07T13:10:51.743Z,24.33
2022-08-07T13:13:48.682Z,24.54
2022-08-07T13:16:27.239Z,24.14
2022-08-07T13:19:11.516Z,23.27
2022-08-07T13:22:32.678Z,23.80
2022-08-07T13:25:24.142Z,23.91
2022-08-07T13:28:11.525Z,23.67
2022-08-07T13:30:52.077Z,23.70
2022-08-07T13:34:34.251Z,24.14
2022-08-07T13:36:47.764Z,23.94
2022-08-07T13:40:33.721Z,24.12
2022-08-07T13:42:21.423Z,24.27
2022-08-07T13:45:11.561Z,24.29
2022-08-07T13:48:05.445Z,24.35
2022-08-07T13:50:33.011Z,24.36
2022-08-07T13:53:05.308Z,23.67
2022-08-07T13:55:34.141Z,23.43
2022-08-07T13:58:31.761Z,23.69
2022-08-07T14:01:11.282Z,24.08
2022-08-07T14:04:06.741Z,24.44
2022-08-07T14:06:43.751Z,24.53
2022-08-07T14:10:01.949Z,24.42
2022-08-07T14:12:13.711Z,24.12
2022-08-07T14:14:45.033Z,24.09
2022-08-07T14:18:13.156Z,23.72
2022-08-07T14:20:42.032Z,24.01
2022-08-07T14:23:14.507Z,24.85
2022-08-07T14:26:28.391Z,24.30
2022-08-07T14:29:08.527Z,24.38
2022-08-07T14:31:56.480Z,24.34
2022-08-07T14:34:30.024Z,24.19
2022-08-07T14:37:01.680Z,24.09
2022-08-07T14:40:16.272Z,24.08
2022-08-07T14:42:32.301Z,23.97
2022-08-07T14:45:20.816Z,24.43
2022-08-07T14:47:51.252Z,24.27
2022-08-07T14:50:22.600Z,24.73
2022-08-07T14:52:52.883Z,24.51
2022-08-07T14:55:21.645Z,24.16
2022-08-07T14:57:58.340Z,24.30
2022-08-07T15:00:31.770Z,24.32
2022-08-07T15:03:18.785Z,24.01
2022-08-07T15:05:54.709Z,24.53
2022-08-07T15:08:49.826Z,24.08
2022-08-07T15:11:53.095Z,24.30
2022-08-07T15:14:17.681Z,24.50
2022-08-07T15:16:54.448Z,24.31
2022-08-07T15:20:31.838Z,23.96
2022-08-07T15:22:18.291Z,23.92
2022-08-07T15:25:13.968Z,24.23
2022-08-07T15:30:36.633Z,24.47
2022-08-07T15:33:33.972Z,24.80
2022-08-07T15:36:06.228Z,25.26
2022-08-07T15:38:59.179Z,24.64
2022-08-07T15:44:17.339Z,25.30
2022-08-07T15:46:51.936Z,24.67
2022-08-07T15:50:05.325Z,24.42
2022-08-07T15:52:17.121Z,24.49
2022-08-07T15:54:49.553Z,24.08
2022-08-07T15:57:39.716Z,24.34
2022-08-07T16:00:31.637Z,24.43
2022-08-07T16:03:21.582Z,24.92
2022-08-07T16:05:56.279Z,24.84
2022-08-07T16:08:32.161Z,25.02
2022-08-07T16:11:29.261Z,24.30
2022-08-07T16:14:02.822Z,23.91
2022-08-07T16:16:56.913Z,23.92
2022-08-07T16:19:58.442Z,23.92
2022-08-07T16:23:05.271Z,23.53
2022-08-07T16:25:56.622Z,23.52
2022-08-07T16:30:07.483Z,23.54
2022-08-07T16:31:51.956Z,23.81
2022-08-07T16:34:24.147Z,23.95
2022-08-07T16:38:03.965Z,23.85
2022-08-07T16:40:34.141Z,24.00
2022-08-07T16:43:07.424Z,23.94
2022-08-07T16:46:33.141Z,24.22
2022-08-07T16:49:04.400Z,24.36
2022-08-07T16:52:01.371Z,24.09
2022-08-07T16:54:54.277Z,23.84
2022-08-07T16:58:00.654Z,23.51
2022-08-07T17:00:30.155Z,23.22
2022-08-07T17:03:19.341Z,23.40
2022-08-07T17:06:31.073Z,23.49
2022-08-07T17:09:15.793Z,23.02
2022-08-07T17:12:44.219Z,22.93
2022-08-07T17:15:15.729Z,22.85
2022-08-07T17:17:48.967Z,22.91
2022-08-07T17:20:46.687Z,22.89
2022-08-07T17:23:20.267Z,22.66
2022-08-07T17:26:02.387Z,22.62
2022-08-07T17:30:15.523Z,22.47
2022-08-07T17:32:30.511Z,22.65
2022-08-07T17:35:49.904Z,22.44
2022-08-07T17:38:32.067Z,22.41
2022-08-07T17:42:04.955Z,22.25
2022-08-07T17:44:14.189Z,22.23
2022-08-07T17:46:56.129Z,22.19
2022-08-07T17:49:30.584Z,22.08
2022-08-07T17:52:30.587Z,21.89
2022-08-07T17:55:09.403Z,21.86
2022-08-07T17:57:58.352Z,21.76
2022-08-07T18:00:34.078Z,21.73
2022-08-07T18:03:28.710Z,21.64
2022-08-07T18:06:16.598Z,21.53
2022-08-07T18:09:05.718Z,21.42
2022-08-07T18:12:06.851Z,21.38
2022-08-07T18:14:37.485Z,21.30
2022-08-07T18:18:44.715Z,21.19
2022-08-07T18:21:06.658Z,21.10
2022-08-07T18:23:05.852Z,21.08
2022-08-07T18:26:00.982Z,20.94
2022-08-07T18:28:58.491Z,20.83
2022-08-07T18:31:50.108Z,20.71
2022-08-07T18:34:53.113Z,20.63
2022-08-07T18:38:56.623Z,20.55
2022-08-07T18:41:08.637Z,20.46
2022-08-07T18:43:57.831Z,20.28
2022-08-07T18:46:42.899Z,20.20
2022-08-07T18:50:30.306Z,20.05
2022-08-07T18:52:51.660Z,20.01
2022-08-07T18:56:09.612Z,19.75
2022-08-07T18:58:51.842Z,19.71
2022-08-07T19:02:18.612Z,19.61
2022-08-07T19:05:15.022Z,19.51
2022-08-07T19:07:56.975Z,19.42
2022-08-07T19:10:51.454Z,19.34
2022-08-07T19:13:43.423Z,19.29
2022-08-07T19:17:04.275Z,19.18
2022-08-07T19:19:17.548Z,19.17
2022-08-07T19:22:05.151Z,19.20
2022-08-07T19:24:48.323Z,19.15
2022-08-07T19:28:29.693Z,18.97
2022-08-07T19:31:05.544Z,18.81
2022-08-07T19:33:12.981Z,18.73
2022-08-07T19:35:43.902Z,18.59
2022-08-07T19:38:16.044Z,18.46
2022-08-07T19:40:50.176Z,18.30
2022-08-07T19:43:48.661Z,18.26
2022-08-07T19:46:22.401Z,18.14
2022-08-07T19:49:00.002Z,18.04
2022-08-07T19:51:52.343Z,18.06
2022-08-07T19:54:29.655Z,18.00
2022-08-07T19:57:52.432Z,17.96
2022-08-07T19:59:58.286Z,17.87
2022-08-07T20:02:31.610Z,17.75
2022-08-07T20:05:01.852Z,17.72
2022-08-07T20:07:47.411Z,17.70
2022-08-07T20:10:52.026Z,17.67
2022-08-07T20:13:22.972Z,17.60
2022-08-07T20:15:53.884Z,17.54
2022-08-07T20:18:32.520Z,17.46
2022-08-07T20:21:03.063Z,17.35
2022-08-07T20:23:42.002Z,17.33
2022-08-07T20:26:20.401Z,17.22
2022-08-07T20:28:59.708Z,17.14
2022-08-07T20:31:28.877Z,17.06
2022-08-07T20:33:58.409Z,17.03
2022-08-07T20:36:28.395Z,16.89
2022-08-07T20:39:00.374Z,16.91
2022-08-07T20:41:38.313Z,16.84
2022-08-07T20:44:10.354Z,16.72
2022-08-07T20:46:44.064Z,16.61
2022-08-07T20:50:00.394Z,16.60
2022-08-07T20:52:09.339Z,16.59
2022-08-07T20:54:41.618Z,16.53
2022-08-07T20:57:13.169Z,16.45
2022-08-07T21:00:05.643Z,16.42
2022-08-07T21:02:53.998Z,16.36
2022-08-07T21:05:42.436Z,16.31
2022-08-07T21:08:14.707Z,16.31
2022-08-07T21:10:44.598Z,16.19
2022-08-07T21:13:24.414Z,16.17
2022-08-07T21:16:09.282Z,16.14
2022-08-07T21:18:41.144Z,16.19
2022-08-07T21:21:16.521Z,16.16
2022-08-07T21:24:11.700Z,16.13
2022-08-07T21:26:51.053Z,16.14
2022-08-07T21:29:30.355Z,16.18
2022-08-07T21:32:44.240Z,16.26
2022-08-07T21:35:01.649Z,16.16
2022-08-07T21:37:58.109Z,16.05
2022-08-07T21:40:38.417Z,15.95
2022-08-07T21:43:47.559Z,15.87
2022-08-07T21:46:24.475Z,15.88
2022-08-07T21:48:59.714Z,15.82
2022-08-07T21:51:31.975Z,15.80
2022-08-07T21:54:27.510Z,15.74
2022-08-07T21:57:44.474Z,15.80
2022-08-07T22:00:23.246Z,15.75
2022-08-07T22:03:03.572Z,15.82
2022-08-07T22:05:44.658Z,15.65
2022-08-07T22:08:18.857Z,15.50
2022-08-07T22:10:50.936Z,15.34
2022-08-07T22:13:24.691Z,15.39
2022-08-07T22:16:43.042Z,15.39
2022-08-07T22:19:32.822Z,15.27
2022-08-07T22:22:28.933Z,15.22
2022-08-07T22:25:08.331Z,15.27
2022-08-07T22:28:31.008Z,15.30
2022-08-07T22:31:56.242Z,15.26
2022-08-07T22:34:52.910Z,15.24
2022-08-07T22:38:05.382Z,15.38
2022-08-07T22:40:41.053Z,15.34
2022-08-07T22:43:11.689Z,15.37
2022-08-07T22:46:41.007Z,15.34
2022-08-07T22:48:58.977Z,15.42
2022-08-07T22:51:37.405Z,15.32
2022-08-07T22:55:14.896Z,15.37
2022-08-07T22:58:15.851Z,15.24
2022-08-07T23:01:05.532Z,15.29
2022-08-07T23:04:16.252Z,15.32
2022-08-07T23:06:51.732Z,15.27
2022-08-07T23:10:03.923Z,15.22
2022-08-07T23:13:04.900Z,15.18
2022-08-07T23:16:06.032Z,15.14
2022-08-07T23:18:35.314Z,15.03
2022-08-07T23:21:36.771Z,15.03
2022-08-07T23:24:45.694Z,15.07
2022-08-07T23:27:33.541Z,15.00
2022-08-07T23:30:39.252Z,14.91
2022-08-07T23:34:23.416Z,14.84
2022-08-07T23:37:19.531Z,14.71
2022-08-07T23:40:05.778Z,14.64
2022-08-07T23:42:45.916Z,14.57
2022-08-07T23:46:01.811Z,14.43
2022-08-07T23:48:28.806Z,14.38
2022-08-07T23:53:01.585Z,14.28
2022-08-07T23:54:28.422Z,14.33
2022-08-07T23:57:10.264Z,14.28
